createdAt,value
2024-01-19T00:01:46.241Z,-1.72
2024-01-19T00:04:14.155Z,-1.67
2024-01-19T00:06:42.060Z,-1.61
2024-01-19T00:09:10.248Z,-1.61
2024-01-19T00:11:38.580Z,-1.61
2024-01-19T00:14:06.463Z,-1.60
2024-01-19T00:16:35.936Z,-1.60
2024-01-19T00:19:03.984Z,-1.57
2024-01-19T00:21:32.122Z,-1.58
2024-01-19T00:24:00.160Z,-1.58
2024-01-19T00:26:28.154Z,-1.57
2024-01-19T00:28:56.497Z,-1.50
2024-01-19T00:31:24.365Z,-1.50
2024-01-19T00:33:53.745Z,-1.46
2024-01-19T00:36:21.839Z,-1.44
2024-01-19T00:38:49.817Z,-1.40
2024-01-19T00:41:18.285Z,-1.37
2024-01-19T00:43:46.326Z,-1.39
2024-01-19T00:46:14.298Z,-1.30
2024-01-19T00:48:42.492Z,-1.27
2024-01-19T00:51:11.749Z,-1.39
2024-01-19T00:53:39.951Z,-1.29
2024-01-19T00:56:08.385Z,-1.20
2024-01-19T00:58:36.340Z,-1.19
2024-01-19T01:01:04.739Z,-1.20
2024-01-19T01:03:33.158Z,-1.17
2024-01-19T01:06:02.007Z,-1.17
2024-01-19T01:08:31.587Z,-1.20
2024-01-19T01:10:59.454Z,-1.21
2024-01-19T01:13:27.711Z,-1.16
2024-01-19T01:15:55.889Z,-1.12
2024-01-19T01:18:24.064Z,-1.09
2024-01-19T01:20:52.691Z,-1.09
2024-01-19T01:23:21.000Z,-1.02
2024-01-19T01:25:50.431Z,-1.05
2024-01-19T01:28:18.527Z,-1.02
2024-01-19T01:30:46.553Z,-0.99
2024-01-19T01:33:14.870Z,-0.99
2024-01-19T01:35:43.134Z,-0.97
2024-01-19T01:38:11.179Z,-1.00
2024-01-19T01:40:39.325Z,-1.06
2024-01-19T01:43:09.153Z,-1.00
2024-01-19T01:45:37.381Z,-0.96
2024-01-19T01:48:06.179Z,-0.92
2024-01-19T01:50:34.585Z,-0.91
2024-01-19T01:53:03.145Z,-0.91
2024-01-19T01:55:31.243Z,-0.89
2024-01-19T01:57:59.659Z,-0.93
2024-01-19T02:00:31.560Z,-0.92
2024-01-19T02:03:02.589Z,-0.93
2024-01-19T02:05:30.862Z,-0.86
2024-01-19T02:07:59.037Z,-0.89
2024-01-19T02:10:27.346Z,-0.92
2024-01-19T02:12:56.314Z,-0.84
2024-01-19T02:15:25.608Z,-0.85
2024-01-19T02:17:55.572Z,-0.79
2024-01-19T02:20:24.164Z,-0.78
2024-01-19T02:22:54.725Z,0.04
2024-01-19T02:25:24.159Z,0.70
2024-01-19T02:27:52.323Z,1.58
2024-01-19T02:30:20.167Z,1.51
2024-01-19T02:32:48.490Z,2.01
2024-01-19T02:35:16.408Z,2.12
2024-01-19T02:37:44.524Z,2.23
2024-01-19T02:40:13.146Z,2.33
2024-01-19T02:42:42.424Z,2.32
2024-01-19T02:45:10.736Z,2.21
2024-01-19T02:47:38.663Z,1.88
2024-01-19T02:50:07.824Z,1.82
2024-01-19T02:52:35.908Z,1.55
2024-01-19T02:55:04.337Z,1.67
2024-01-19T02:57:32.315Z,1.94
2024-01-19T03:00:02.086Z,1.75
2024-01-19T03:02:30.210Z,1.67
2024-01-19T03:04:58.297Z,1.58
2024-01-19T03:07:26.214Z,1.51
2024-01-19T03:09:54.201Z,0.82
2024-01-19T03:12:22.214Z,0.48
2024-01-19T03:14:50.082Z,0.15
2024-01-19T03:17:20.474Z,0.19
2024-01-19T03:19:48.535Z,0.14
2024-01-19T03:22:16.436Z,0.00
2024-01-19T03:24:44.294Z,0.01
2024-01-19T03:27:12.420Z,0.00
2024-01-19T03:29:40.309Z,0.10
2024-01-19T03:32:08.377Z,-0.04
2024-01-19T03:34:37.770Z,-0.03
2024-01-19T03:37:05.715Z,0.04
2024-01-19T03:39:34.208Z,0.28
2024-01-19T03:42:02.434Z,0.04
2024-01-19T03:44:30.392Z,-0.09
2024-01-19T03:47:00.363Z,-0.03
2024-01-19T03:49:28.677Z,0.13
2024-01-19T03:52:03.344Z,0.04
2024-01-19T03:54:31.348Z,0.11
2024-01-19T03:57:01.903Z,0.41
2024-01-19T03:59:29.924Z,0.41
2024-01-19T04:01:58.445Z,0.22
2024-01-19T04:04:27.832Z,0.19
2024-01-19T04:06:57.071Z,0.01
2024-01-19T04:09:26.804Z,-0.02
2024-01-19T04:11:55.072Z,-0.03
2024-01-19T04:14:23.272Z,-0.10
2024-01-19T04:16:51.306Z,-0.02
2024-01-19T04:19:19.556Z,-0.09
2024-01-19T04:21:47.434Z,-0.07
2024-01-19T04:24:15.553Z,-0.04
2024-01-19T04:26:44.792Z,-0.07
2024-01-19T04:29:12.970Z,0.01
2024-01-19T04:31:40.835Z,-0.15
2024-01-19T04:34:09.090Z,-0.10
2024-01-19T04:36:37.015Z,-0.11
2024-01-19T04:39:05.365Z,-0.03
2024-01-19T04:41:33.346Z,0.11
2024-01-19T04:44:03.045Z,0.11
2024-01-19T04:46:31.060Z,0.06
2024-01-19T04:48:58.222Z,-0.06
2024-01-19T04:51:26.235Z,-0.02
2024-01-19T04:53:54.572Z,-0.06
2024-01-19T04:56:22.528Z,-0.13
2024-01-19T04:58:50.593Z,-0.21
2024-01-19T05:01:19.998Z,-0.28
2024-01-19T05:03:48.047Z,-0.28
2024-01-19T05:06:16.221Z,-0.24
2024-01-19T05:08:44.437Z,-0.25
2024-01-19T05:11:15.120Z,-0.30
2024-01-19T05:13:43.670Z,-0.38
2024-01-19T05:16:12.031Z,-0.28
2024-01-19T05:18:42.132Z,-0.23
2024-01-19T05:21:10.326Z,-0.21
2024-01-19T05:23:38.639Z,-0.35
2024-01-19T05:26:06.885Z,-0.30
2024-01-19T05:28:36.158Z,-0.40
2024-01-19T05:31:04.638Z,-0.48
2024-01-19T05:33:36.240Z,-0.51
2024-01-19T05:36:07.782Z,-0.51
2024-01-19T05:38:35.769Z,-0.53
2024-01-19T05:41:04.296Z,-0.50
2024-01-19T05:43:32.494Z,-0.45
2024-01-19T05:46:00.392Z,-0.42
2024-01-19T05:48:28.613Z,-0.42
2024-01-19T05:50:56.957Z,-0.37
2024-01-19T05:53:26.514Z,-0.45
2024-01-19T05:55:54.442Z,-0.42
2024-01-19T05:58:22.592Z,-0.28
2024-01-19T06:00:50.760Z,-0.35
2024-01-19T06:03:18.873Z,-0.20
2024-01-19T06:05:47.560Z,-0.30
2024-01-19T06:08:15.502Z,-0.25
2024-01-19T06:10:44.923Z,-0.11
2024-01-19T06:13:14.535Z,-0.11
2024-01-19T06:15:42.616Z,-0.04
2024-01-19T06:18:10.846Z,-0.17
2024-01-19T06:20:42.489Z,-0.07
2024-01-19T06:23:11.294Z,0.01
2024-01-19T06:25:40.339Z,-0.15
2024-01-19T06:28:09.891Z,-0.30
2024-01-19T06:30:37.763Z,-0.41
2024-01-19T06:33:07.738Z,-0.45
2024-01-19T06:35:36.720Z,-0.48
2024-01-19T06:38:06.124Z,-0.51
2024-01-19T06:40:35.230Z,-0.64
2024-01-19T06:43:03.775Z,-0.71
2024-01-19T06:45:34.187Z,-0.62
2024-01-19T06:48:02.220Z,-0.41
2024-01-19T06:50:30.157Z,-0.15
2024-01-19T06:53:00.717Z,0.21
2024-01-19T06:55:29.338Z,0.24
2024-01-19T06:57:57.346Z,0.06
2024-01-19T07:00:25.657Z,-0.04
2024-01-19T07:02:55.686Z,-0.09
2024-01-19T07:05:24.133Z,0.07
2024-01-19T07:07:52.170Z,-0.31
2024-01-19T07:10:21.657Z,0.49
2024-01-19T07:12:49.607Z,0.37
2024-01-19T07:15:17.599Z,0.31
2024-01-19T07:17:45.609Z,0.40
2024-01-19T07:20:15.361Z,-0.25
2024-01-19T07:22:43.209Z,-0.62
2024-01-19T07:25:30.088Z,-0.60
2024-01-19T07:27:58.073Z,-0.71
2024-01-19T07:30:25.935Z,-0.85
2024-01-19T07:33:01.684Z,-1.12
2024-01-19T07:35:36.492Z,-1.02
2024-01-19T07:38:05.223Z,-1.17
2024-01-19T07:40:33.768Z,-0.93
2024-01-19T07:43:01.725Z,-1.07
2024-01-19T07:45:29.797Z,-1.20
2024-01-19T07:47:57.783Z,-1.17
2024-01-19T07:50:26.702Z,-1.26
2024-01-19T07:52:56.173Z,-1.16
2024-01-19T07:55:24.740Z,-1.15
2024-01-19T07:57:53.100Z,-1.21
2024-01-19T08:00:21.087Z,-1.25
2024-01-19T08:02:49.280Z,-1.32
2024-01-19T08:05:17.205Z,-1.36
2024-01-19T08:07:45.331Z,-1.23
2024-01-19T08:10:14.884Z,-1.20
2024-01-19T08:12:42.926Z,-1.21
2024-01-19T08:15:11.372Z,-1.17
2024-01-19T08:17:39.565Z,-1.10
2024-01-19T08:20:10.510Z,-0.89
2024-01-19T08:22:38.846Z,-0.84
2024-01-19T08:25:07.223Z,-0.89
2024-01-19T08:27:36.494Z,-1.02
2024-01-19T08:30:04.920Z,-0.33
2024-01-19T08:32:33.495Z,0.13
2024-01-19T08:35:01.488Z,0.66
2024-01-19T08:37:29.792Z,1.13
2024-01-19T08:39:59.963Z,1.81
2024-01-19T08:42:27.936Z,2.28
2024-01-19T08:44:57.283Z,3.56
2024-01-19T08:47:25.323Z,3.77
2024-01-19T08:49:53.462Z,3.60
2024-01-19T08:52:21.540Z,3.39
2024-01-19T08:54:49.537Z,3.00
2024-01-19T08:57:17.494Z,1.95
2024-01-19T08:59:46.675Z,2.05
2024-01-19T09:02:15.960Z,2.03
2024-01-19T09:04:44.009Z,2.16
2024-01-19T09:07:12.002Z,1.82
2024-01-19T09:09:41.616Z,1.16
2024-01-19T09:12:09.675Z,0.70
2024-01-19T09:14:37.801Z,0.61
2024-01-19T09:17:05.866Z,1.77
2024-01-19T09:19:37.762Z,2.97
2024-01-19T09:22:07.867Z,3.55
2024-01-19T09:24:35.772Z,4.00
2024-01-19T09:27:04.210Z,4.47
2024-01-19T09:29:32.146Z,5.19
2024-01-19T09:32:00.176Z,4.51
2024-01-19T09:34:28.214Z,4.49
2024-01-19T09:36:57.489Z,5.03
2024-01-19T09:39:25.554Z,5.43
2024-01-19T09:42:02.235Z,4.64
2024-01-19T09:44:36.183Z,4.57
2024-01-19T09:47:17.913Z,5.05
2024-01-19T09:49:59.558Z,5.92
2024-01-19T09:52:43.536Z,5.81
2024-01-19T09:55:12.887Z,6.26
2024-01-19T09:57:47.443Z,6.49
2024-01-19T10:00:17.033Z,6.53
2024-01-19T10:02:46.831Z,6.46
2024-01-19T10:05:15.879Z,6.93
2024-01-19T10:07:46.834Z,6.87
2024-01-19T10:10:16.309Z,7.65
2024-01-19T10:12:44.875Z,8.17
2024-01-19T10:15:14.157Z,6.12
2024-01-19T10:17:42.777Z,5.71
2024-01-19T10:20:13.277Z,6.25
2024-01-19T10:22:41.864Z,6.46
2024-01-19T10:25:13.490Z,5.99
2024-01-19T10:27:45.459Z,6.09
2024-01-19T10:30:15.690Z,5.37
2024-01-19T10:32:46.228Z,5.09
2024-01-19T10:35:16.150Z,5.77
2024-01-19T10:37:47.436Z,5.27
2024-01-19T10:40:18.889Z,4.21
2024-01-19T10:42:48.075Z,3.93
2024-01-19T10:45:20.150Z,4.51
2024-01-19T10:47:48.906Z,4.93
2024-01-19T10:50:17.989Z,5.24
2024-01-19T10:52:46.879Z,5.13
2024-01-19T10:55:21.016Z,6.66
2024-01-19T10:57:51.415Z,5.12
2024-01-19T11:00:23.986Z,5.03
2024-01-19T11:02:55.282Z,4.04
2024-01-19T11:05:23.878Z,3.89
2024-01-19T11:07:55.783Z,4.47
2024-01-19T11:10:26.665Z,4.99
2024-01-19T11:12:57.108Z,5.65
2024-01-19T11:15:32.515Z,6.01
2024-01-19T11:18:03.753Z,6.53
2024-01-19T11:20:32.731Z,7.18
2024-01-19T11:23:02.124Z,6.94
2024-01-19T11:25:45.104Z,6.70
2024-01-19T11:28:22.495Z,6.93
2024-01-19T11:31:12.284Z,6.74
2024-01-19T11:33:40.495Z,7.55
2024-01-19T11:36:09.294Z,7.00
2024-01-19T11:38:47.742Z,7.70
2024-01-19T11:41:47.806Z,7.90
2024-01-19T11:44:45.700Z,7.56
2024-01-19T11:47:44.992Z,8.04
2024-01-19T11:50:14.928Z,7.62
2024-01-19T11:52:45.233Z,7.26
2024-01-19T11:55:41.344Z,6.88
2024-01-19T11:58:30.211Z,7.04
2024-01-19T12:01:00.528Z,6.71
2024-01-19T12:03:29.227Z,7.01
2024-01-19T12:06:01.362Z,6.81
2024-01-19T12:08:30.539Z,6.50
2024-01-19T12:11:12.517Z,6.29
2024-01-19T12:13:49.343Z,5.79
2024-01-19T12:16:24.389Z,5.55
2024-01-19T12:18:56.734Z,5.94
2024-01-19T12:21:25.787Z,5.99
2024-01-19T12:23:58.432Z,5.57
2024-01-19T12:26:27.152Z,5.50
2024-01-19T12:28:58.185Z,5.82
2024-01-19T12:31:27.580Z,5.81
2024-01-19T12:33:55.783Z,6.12
2024-01-19T12:36:27.199Z,6.18
2024-01-19T12:39:07.242Z,6.26
2024-01-19T12:41:35.627Z,6.36
2024-01-19T12:44:05.127Z,5.84
2024-01-19T12:46:33.162Z,6.26
2024-01-19T12:49:04.558Z,5.52
2024-01-19T12:51:33.709Z,5.22
2024-01-19T12:54:01.766Z,5.51
2024-01-19T12:56:30.889Z,5.81
2024-01-19T12:59:11.307Z,6.32
2024-01-19T13:01:41.289Z,5.30
2024-01-19T13:04:09.359Z,5.41
2024-01-19T13:06:41.801Z,5.23
2024-01-19T13:09:10.571Z,4.62
2024-01-19T13:11:38.432Z,4.25
2024-01-19T13:14:07.887Z,3.58
2024-01-19T13:16:54.150Z,3.24
2024-01-19T13:19:22.732Z,3.00
2024-01-19T13:21:51.106Z,2.52
2024-01-19T13:24:19.255Z,2.25
2024-01-19T13:26:47.132Z,2.02
2024-01-19T13:29:15.277Z,2.02
2024-01-19T13:31:44.960Z,2.01
2024-01-19T13:34:13.373Z,1.82
2024-01-19T13:36:44.379Z,1.89
2024-01-19T13:39:12.389Z,1.78
2024-01-19T13:41:40.317Z,1.71
2024-01-19T13:44:08.380Z,1.58
2024-01-19T13:46:36.437Z,1.62
2024-01-19T13:49:06.329Z,1.58
2024-01-19T13:51:34.465Z,1.52
2024-01-19T13:54:02.348Z,1.60
2024-01-19T13:56:30.934Z,1.61
2024-01-19T13:58:59.185Z,1.61
2024-01-19T14:01:27.322Z,1.57
2024-01-19T14:03:55.749Z,1.43
2024-01-19T14:06:25.050Z,1.44
2024-01-19T14:08:53.976Z,1.39
2024-01-19T14:11:22.265Z,1.36
2024-01-19T14:13:51.106Z,1.36
2024-01-19T14:16:19.396Z,1.27
2024-01-19T14:18:47.407Z,1.29
2024-01-19T14:21:17.548Z,1.23
2024-01-19T14:23:46.959Z,1.26
2024-01-19T14:26:15.687Z,1.30
2024-01-19T14:28:43.779Z,1.20
2024-01-19T14:31:11.763Z,1.19
2024-01-19T14:33:40.029Z,1.16
2024-01-19T14:36:08.119Z,1.12
2024-01-19T14:38:39.123Z,1.09
2024-01-19T14:41:08.805Z,0.93
2024-01-19T14:43:36.773Z,0.96
2024-01-19T14:46:06.584Z,0.93
2024-01-19T14:48:35.033Z,0.88
2024-01-19T14:51:03.558Z,0.86
2024-01-19T14:53:32.013Z,0.80
2024-01-19T14:56:01.601Z,0.73
2024-01-19T14:58:31.211Z,0.69
2024-01-19T15:00:59.193Z,0.59
2024-01-19T15:03:27.247Z,0.59
2024-01-19T15:05:55.186Z,0.48
2024-01-19T15:08:23.362Z,0.47
2024-01-19T15:10:51.469Z,0.38
2024-01-19T15:13:20.124Z,0.34
2024-01-19T15:15:49.410Z,0.29
2024-01-19T15:18:17.403Z,0.27
2024-01-19T15:20:45.407Z,0.25
2024-01-19T15:23:13.567Z,0.18
2024-01-19T15:25:42.136Z,0.11
2024-01-19T15:28:10.139Z,0.03
2024-01-19T15:30:43.571Z,0.06
2024-01-19T15:33:13.856Z,-0.03
2024-01-19T15:35:41.914Z,-0.11
2024-01-19T15:38:09.810Z,-0.15
2024-01-19T15:40:37.866Z,-0.23
2024-01-19T15:43:06.327Z,-0.27
2024-01-19T15:45:34.203Z,-0.34
2024-01-19T15:48:02.180Z,-0.41
2024-01-19T15:50:31.799Z,-0.44
2024-01-19T15:52:59.763Z,-0.57
2024-01-19T15:55:30.855Z,-0.57
2024-01-19T15:57:58.739Z,-0.66
2024-01-19T16:00:27.015Z,-0.69
2024-01-19T16:05:44.089Z,-0.88
2024-01-19T16:08:12.136Z,-0.88
2024-01-19T16:10:40.063Z,-0.89
2024-01-19T16:13:08.328Z,-0.93
2024-01-19T16:15:36.273Z,-1.10
2024-01-19T16:18:04.189Z,-1.03
2024-01-19T16:20:32.213Z,-1.09
2024-01-19T16:23:01.554Z,-1.07
2024-01-19T16:25:29.725Z,-1.15
2024-01-19T16:27:57.627Z,-1.17
2024-01-19T16:30:25.500Z,-1.19
2024-01-19T16:32:53.616Z,-1.23
2024-01-19T16:35:27.728Z,-1.27
2024-01-19T16:37:59.561Z,-1.29
2024-01-19T16:40:29.137Z,-1.32
2024-01-19T16:42:57.260Z,-1.32
2024-01-19T16:45:25.329Z,-1.42
2024-01-19T16:47:57.277Z,-1.42
2024-01-19T16:50:25.398Z,-1.42
2024-01-19T16:52:53.596Z,-1.40
2024-01-19T16:55:21.491Z,-1.29
2024-01-19T16:57:50.680Z,-1.35
2024-01-19T17:00:19.066Z,-1.36
2024-01-19T17:02:47.606Z,-1.35
2024-01-19T17:05:17.805Z,-1.30
2024-01-19T17:07:46.097Z,-1.36
2024-01-19T17:10:14.872Z,-1.40
2024-01-19T17:12:44.765Z,-1.42
2024-01-19T17:15:14.081Z,-1.43
2024-01-19T17:17:42.449Z,-1.48
2024-01-19T17:20:11.387Z,-1.44
2024-01-19T17:22:39.959Z,-1.47
2024-01-19T17:25:08.524Z,-1.54
2024-01-19T17:27:36.534Z,-1.53
2024-01-19T17:30:04.982Z,-1.58
2024-01-19T17:32:34.472Z,-1.54
2024-01-19T17:35:03.087Z,-1.61
2024-01-19T17:37:31.189Z,-1.61
2024-01-19T17:39:59.142Z,-1.61
2024-01-19T17:42:27.415Z,-1.61
2024-01-19T17:44:55.626Z,-1.63
2024-01-19T17:47:23.525Z,-1.64
2024-01-19T17:49:53.019Z,-1.72
2024-01-19T17:52:20.929Z,-1.71
2024-01-19T17:54:49.052Z,-1.68
2024-01-19T17:57:17.218Z,-1.77
2024-01-19T17:59:45.196Z,-1.74
2024-01-19T18:02:14.012Z,-1.77
2024-01-19T18:04:42.008Z,-1.77
2024-01-19T18:07:12.147Z,-1.81
2024-01-19T18:09:40.165Z,-1.81
2024-01-19T18:12:08.928Z,-1.79
2024-01-19T18:14:37.461Z,-1.78
2024-01-19T18:17:05.790Z,-1.87
2024-01-19T18:19:34.010Z,-1.85
2024-01-19T18:22:02.094Z,-1.85
2024-01-19T18:24:32.959Z,-1.91
2024-01-19T18:27:02.479Z,-1.87
2024-01-19T18:29:30.902Z,-1.85
2024-01-19T18:31:58.912Z,-1.89
2024-01-19T18:34:27.788Z,-1.84
2024-01-19T18:36:56.056Z,-1.84
2024-01-19T18:39:24.181Z,-1.89
2024-01-19T18:41:53.455Z,-1.91
2024-01-19T18:44:22.013Z,-1.91
2024-01-19T18:46:51.958Z,-1.87
2024-01-19T18:49:20.232Z,-1.82
2024-01-19T18:51:48.152Z,-1.82
2024-01-19T18:54:16.757Z,-1.81
2024-01-19T18:56:44.670Z,-1.72
2024-01-19T18:59:17.388Z,-1.67
2024-01-19T19:01:46.664Z,-1.63
2024-01-19T19:04:14.871Z,-1.66
2024-01-19T19:06:43.139Z,-1.54
2024-01-19T19:09:12.512Z,-1.47
2024-01-19T19:11:41.380Z,-1.40
2024-01-19T19:14:11.127Z,-1.42
2024-01-19T19:16:46.702Z,-1.39
2024-01-19T19:19:17.033Z,-1.43
2024-01-19T19:21:45.220Z,-1.46
2024-01-19T19:24:13.192Z,-1.48
2024-01-19T19:26:41.180Z,-1.47
2024-01-19T19:29:09.150Z,-1.47
2024-01-19T19:31:37.085Z,-1.56
2024-01-19T19:34:06.708Z,-1.54
2024-01-19T19:36:35.131Z,-1.67
2024-01-19T19:39:05.604Z,-1.67
2024-01-19T19:41:35.110Z,-1.68
2024-01-19T19:44:03.038Z,-1.70
2024-01-19T19:46:31.287Z,-1.74
2024-01-19T19:48:59.216Z,-1.70
2024-01-19T19:51:28.603Z,-1.71
2024-01-19T19:53:56.720Z,-1.75
2024-01-19T19:56:24.699Z,-1.78
2024-01-19T19:58:52.851Z,-1.74
2024-01-19T20:01:22.487Z,-1.79
2024-01-19T20:03:50.474Z,-1.88
2024-01-19T20:06:23.879Z,-1.95
2024-01-19T20:08:53.776Z,-1.98
2024-01-19T20:11:22.104Z,-1.89
2024-01-19T20:13:50.463Z,-1.99
2024-01-19T20:16:18.407Z,-1.98
2024-01-19T20:18:46.623Z,-1.92
2024-01-19T20:21:14.711Z,-1.98
2024-01-19T20:23:42.870Z,-2.03
2024-01-19T20:26:16.484Z,-2.06
2024-01-19T20:28:45.465Z,-1.99
2024-01-19T20:31:13.729Z,-2.05
2024-01-19T20:33:42.492Z,-2.03
2024-01-19T20:36:10.906Z,-2.01
2024-01-19T20:38:38.825Z,-2.05
2024-01-19T20:41:07.384Z,-2.03
2024-01-19T20:43:36.815Z,-2.03
2024-01-19T20:46:04.949Z,-2.12
2024-01-19T20:48:32.857Z,-2.12
2024-01-19T20:51:00.969Z,-2.10
2024-01-19T20:53:29.080Z,-2.10
2024-01-19T20:55:57.129Z,-2.06
2024-01-19T20:58:28.233Z,-2.10
2024-01-19T21:00:57.977Z,-2.22
2024-01-19T21:03:25.986Z,-2.33
2024-01-19T21:05:54.175Z,-2.23
2024-01-19T21:08:27.486Z,-2.26
2024-01-19T21:10:58.720Z,-2.16
2024-01-19T21:13:28.540Z,-2.23
2024-01-19T21:15:57.996Z,-2.16
2024-01-19T21:18:26.152Z,-2.19
2024-01-19T21:20:56.111Z,-2.15
2024-01-19T21:23:26.564Z,-2.06
2024-01-19T21:25:54.871Z,-2.12
2024-01-19T21:28:22.778Z,-2.12
2024-01-19T21:30:50.857Z,-2.16
2024-01-19T21:33:20.408Z,-2.10
2024-01-19T21:35:48.538Z,-2.15
2024-01-19T21:38:18.173Z,-2.08
2024-01-19T21:40:47.043Z,-2.09
2024-01-19T21:43:15.870Z,-2.13
2024-01-19T21:45:44.179Z,-2.12
2024-01-19T21:48:12.747Z,-2.16
2024-01-19T21:50:42.593Z,-2.23
2024-01-19T21:53:11.069Z,-2.21
2024-01-19T21:55:39.433Z,-2.21
2024-01-19T21:58:07.568Z,-2.16
2024-01-19T22:00:35.709Z,-2.16
2024-01-19T22:03:04.061Z,-2.18
2024-01-19T22:05:32.216Z,-2.18
2024-01-19T22:08:03.771Z,-2.18
2024-01-19T22:10:31.901Z,-2.25
2024-01-19T22:12:59.862Z,-2.22
2024-01-19T22:15:28.079Z,-2.25
2024-01-19T22:17:55.975Z,-2.23
2024-01-19T22:20:24.285Z,-2.26
2024-01-19T22:22:52.197Z,-2.22
2024-01-19T22:25:21.679Z,-2.29
2024-01-19T22:27:49.539Z,-2.25
2024-01-19T22:30:20.786Z,-2.25
2024-01-19T22:32:49.276Z,-2.25
2024-01-19T22:35:17.591Z,-2.30
2024-01-19T22:37:45.748Z,-2.33
2024-01-19T22:40:14.039Z,-2.33
2024-01-19T22:42:43.447Z,-2.39
2024-01-19T22:45:11.843Z,-2.38
2024-01-19T22:47:39.867Z,-2.46
2024-01-19T22:50:09.199Z,-2.43
2024-01-19T22:52:39.899Z,-2.53
2024-01-19T22:55:08.917Z,-2.56
2024-01-19T22:57:37.034Z,-2.61
2024-01-19T23:00:13.817Z,-2.61
2024-01-19T23:02:42.605Z,-2.63
2024-01-19T23:05:12.153Z,-2.67
2024-01-19T23:07:41.540Z,-2.73
2024-01-19T23:10:11.003Z,-2.73
2024-01-19T23:12:39.489Z,-2.70
2024-01-19T23:15:13.596Z,-2.56
2024-01-19T23:17:41.761Z,-2.50
2024-01-19T23:20:10.957Z,-2.46
2024-01-19T23:22:39.143Z,-2.39
2024-01-19T23:25:09.335Z,-2.40
2024-01-19T23:27:40.145Z,-2.39
2024-01-19T23:30:10.253Z,-2.39
2024-01-19T23:32:38.748Z,-2.39
2024-01-19T23:35:08.483Z,-2.42
2024-01-19T23:37:36.468Z,-2.42
2024-01-19T23:40:05.432Z,-2.43
2024-01-19T23:42:33.370Z,-2.49
2024-01-19T23:45:02.806Z,-2.48
2024-01-19T23:47:32.223Z,-2.50
2024-01-19T23:50:00.136Z,-2.48
2024-01-19T23:52:28.147Z,-2.45
2024-01-19T23:54:56.222Z,-2.53
2024-01-19T23:57:24.095Z,-2.60
2024-01-19T23:59:54.577Z,-2.61
